Time;durP1;ratioP1;P1;durP2;ratioP2;P2;SDS_P1;SDS_P2;PMS_P1;PMS_P2;Temp;Humidity;BMP_temperature;BMP_pressure;BME280_temperature;BME280_humidity;BME280_pressure;Samples;Min_cycle;Max_cycle;Signal;HPM_P1;HPM_P2
2022/01/07 00:00:22;;;;;;;4.25;0.93;;;2.80;99.90;;;;;;5090210;28;20048;-74
2022/01/07 00:02:55;;;;;;;5.82;0.85;;;2.70;99.90;;;;;;5089233;28;20403;-73
2022/01/07 00:05:25;;;;;;;4.50;1.02;;;2.60;99.90;;;;;;5090335;28;20063;-68
2022/01/07 00:07:53;;;;;;;7.45;0.82;;;2.60;99.90;;;;;;5088783;28;20395;-66
2022/01/07 00:10:21;;;;;;;10.77;1.02;;;2.50;99.90;;;;;;5088931;28;20051;-68
2022/01/07 00:12:50;;;;;;;5.97;1.38;;;2.50;99.90;;;;;;5088958;28;20047;-66
2022/01/07 00:15:20;;;;;;;4.82;0.75;;;2.50;99.90;;;;;;5090231;28;20079;-67
2022/01/07 00:17:47;;;;;;;9.32;1.23;;;2.50;99.90;;;;;;5078114;28;20040;-72
2022/01/07 00:20:16;;;;;;;7.93;1.25;;;2.40;99.90;;;;;;5090001;28;20044;-69
2022/01/07 00:22:46;;;;;;;2.58;0.60;;;2.50;99.90;;;;;;5089741;28;20051;-69
2022/01/07 00:25:14;;;;;;;4.03;0.60;;;2.50;99.90;;;;;;5088906;28;20496;-66
2022/01/07 00:27:42;;;;;;;4.97;0.80;;;2.60;99.90;;;;;;5089886;28;20044;-76
2022/01/07 00:30:12;;;;;;;4.22;0.70;;;2.70;99.90;;;;;;5087506;28;20052;-67
2022/01/07 00:32:40;;;;;;;3.67;0.90;;;2.60;99.90;;;;;;5079430;28;20048;-74
2022/01/07 00:35:09;;;;;;;7.07;0.90;;;2.60;99.90;;;;;;5089958;28;20055;-72
2022/01/07 00:37:36;;;;;;;6.97;1.10;;;2.60;99.90;;;;;;5089923;28;20040;-67
2022/01/07 00:40:11;;;;;;;2.65;1.20;;;2.60;99.90;;;;;;5089631;28;20052;-68
2022/01/07 00:42:40;;;;;;;4.60;0.60;;;2.70;99.90;;;;;;5072210;28;20058;-66
2022/01/07 00:45:08;;;;;;;6.55;1.48;;;2.70;99.90;;;;;;5088450;28;20510;-69
2022/01/07 00:47:36;;;;;;;8.38;1.70;;;2.60;99.90;;;;;;5080587;28;20397;-69
2022/01/07 00:50:05;;;;;;;5.38;1.83;;;2.60;99.90;;;;;;5108114;28;20044;-70
2022/01/07 00:52:33;;;;;;;6.57;1.40;;;2.50;99.90;;;;;;5109746;28;20047;-66
2022/01/07 00:55:02;;;;;;;3.67;1.00;;;2.50;99.90;;;;;;5109891;28;20404;-64
2022/01/07 00:57:30;;;;;;;5.35;0.93;;;2.50;99.90;;;;;;5108503;28;20128;-66
2022/01/07 00:59:57;;;;;;;6.80;0.60;;;2.40;99.90;;;;;;5109570;28;20056;-67
2022/01/07 01:02:25;;;;;;;6.30;0.60;;;2.40;99.90;;;;;;5096329;28;20055;-66
2022/01/07 01:04:53;;;;;;;2.50;1.00;;;2.30;99.90;;;;;;5085036;28;20052;-66
2022/01/07 01:07:29;;;;;;;10.52;1.10;;;2.20;99.90;;;;;;5087296;28;20047;-67
2022/01/07 01:09:58;;;;;;;14.48;1.45;;;2.20;99.90;;;;;;5089078;28;20036;-66
2022/01/07 01:12:25;;;;;;;9.63;1.00;;;2.20;99.90;;;;;;5088708;28;20044;-65
2022/01/07 01:14:53;;;;;;;4.18;0.55;;;2.10;99.90;;;;;;5088992;28;20052;-65
2022/01/07 01:17:21;;;;;;;8.65;0.68;;;2.10;99.90;;;;;;5083702;28;20055;-66
2022/01/07 01:19:48;;;;;;;10.25;1.00;;;2.00;99.90;;;;;;5085369;28;20055;-65
2022/01/07 01:22:16;;;;;;;5.68;1.48;;;2.10;99.90;;;;;;5087993;28;20039;-66
2022/01/07 01:24:43;;;;;;;6.07;1.13;;;2.10;99.90;;;;;;5089057;28;20055;-65
2022/01/07 01:27:11;;;;;;;12.43;2.08;;;2.10;99.90;;;;;;5089027;28;20051;-65
2022/01/07 01:29:39;;;;;;;7.93;0.75;;;2.10;99.90;;;;;;5088385;28;20515;-65
2022/01/07 01:32:07;;;;;;;7.28;0.85;;;2.10;99.90;;;;;;5085310;28;20047;-66
2022/01/07 01:34:35;;;;;;;4.75;1.10;;;2.20;99.90;;;;;;5084930;28;20047;-65
2022/01/07 01:37:03;;;;;;;8.70;1.15;;;2.30;99.90;;;;;;5088601;28;20059;-65
2022/01/07 01:39:30;;;;;;;4.95;0.70;;;2.40;99.90;;;;;;5088463;28;20495;-66
2022/01/07 01:41:58;;;;;;;9.60;1.90;;;2.40;99.90;;;;;;5087610;28;20047;-66
2022/01/07 01:44:26;;;;;;;9.43;1.60;;;2.50;99.90;;;;;;5088192;28;20044;-65
2022/01/07 01:46:54;;;;;;;3.20;0.52;;;2.60;99.90;;;;;;5088482;28;20040;-65
2022/01/07 01:49:22;;;;;;;7.03;1.05;;;2.60;99.90;;;;;;5081702;28;20058;-65
2022/01/07 01:51:49;;;;;;;5.32;2.03;;;2.70;99.90;;;;;;5088599;28;20047;-66
2022/01/07 01:54:17;;;;;;;0.88;0.50;;;2.70;99.90;;;;;;5088195;28;20513;-65
2022/01/07 01:56:45;;;;;;;6.82;1.45;;;2.80;99.90;;;;;;5088062;28;20040;-65
2022/01/07 01:59:13;;;;;;;5.15;1.10;;;2.90;99.90;;;;;;5088094;28;20040;-65
2022/01/07 02:01:41;;;;;;;2.33;0.55;;;2.90;99.90;;;;;;5088352;28;20518;-66
2022/01/07 02:04:09;;;;;;;5.57;0.77;;;2.90;99.90;;;;;;5086163;28;20048;-65
2022/01/07 02:06:37;;;;;;;4.40;0.60;;;3.00;99.90;;;;;;5088468;28;20047;-65
2022/01/07 02:09:05;;;;;;;3.22;0.38;;;2.90;99.90;;;;;;5087915;28;20537;-76
2022/01/07 02:11:34;;;;;;;3.38;1.27;;;2.80;99.90;;;;;;5088287;28;20055;-65
2022/01/07 02:14:02;;;;;;;4.40;0.77;;;2.80;99.90;;;;;;5088004;28;20044;-65
2022/01/07 02:16:30;;;;;;;6.28;0.75;;;2.80;99.90;;;;;;5087136;28;20047;-65
2022/01/07 02:18:57;;;;;;;6.93;0.70;;;2.70;99.90;;;;;;5083005;28;20052;-76
2022/01/07 02:21:26;;;;;;;2.55;0.60;;;2.60;99.90;;;;;;5088582;28;20424;-66
2022/01/07 02:23:53;;;;;;;5.97;0.52;;;2.50;99.90;;;;;;5089672;28;20055;-66
2022/01/07 02:26:21;;;;;;;4.57;0.60;;;2.50;99.90;;;;;;5092402;28;20047;-72
2022/01/07 02:28:49;;;;;;;3.60;0.70;;;2.40;99.90;;;;;;5092262;28;20600;-68
2022/01/07 02:31:18;;;;;;;2.42;0.68;;;2.30;99.90;;;;;;5082464;28;20059;-71
2022/01/07 02:33:46;;;;;;;5.80;0.70;;;2.20;99.90;;;;;;5075124;28;20135;-69
2022/01/07 02:36:13;;;;;;;3.85;0.80;;;2.10;99.90;;;;;;5075418;28;20408;-67
2022/01/07 02:38:41;;;;;;;12.15;1.00;;;2.10;99.90;;;;;;5082054;28;20043;-67
2022/01/07 02:41:09;;;;;;;3.78;0.82;;;2.00;99.90;;;;;;5096525;28;20740;-66
2022/01/07 02:43:37;;;;;;;9.27;1.77;;;2.00;99.90;;;;;;5095891;28;20047;-70
2022/01/07 02:46:05;;;;;;;9.43;1.10;;;2.00;99.90;;;;;;5093103;28;20051;-69
2022/01/07 02:48:33;;;;;;;8.65;0.85;;;2.00;99.90;;;;;;5094598;28;20047;-70
2022/01/07 02:51:00;;;;;;;2.40;0.82;;;1.90;99.90;;;;;;5095219;28;20055;-65
2022/01/07 02:53:28;;;;;;;4.63;1.00;;;2.00;99.90;;;;;;5093836;28;20055;-66
2022/01/07 02:55:55;;;;;;;7.72;1.30;;;2.00;99.90;;;;;;5095085;28;20541;-65
2022/01/07 02:58:23;;;;;;;5.25;0.80;;;2.00;99.90;;;;;;5094251;28;20410;-65
2022/01/07 03:00:51;;;;;;;7.13;1.13;;;2.00;99.90;;;;;;5094945;28;20114;-66
2022/01/07 03:03:18;;;;;;;2.78;0.82;;;2.00;99.90;;;;;;5093844;28;20055;-65
2022/01/07 03:05:46;;;;;;;6.18;1.30;;;2.00;99.90;;;;;;5094687;28;20391;-65
2022/01/07 03:08:14;;;;;;;5.60;0.77;;;2.00;99.90;;;;;;5093535;28;20056;-65
2022/01/07 03:10:41;;;;;;;6.30;0.85;;;2.00;99.90;;;;;;5094864;28;20048;-65
2022/01/07 03:13:09;;;;;;;8.20;1.60;;;1.90;99.90;;;;;;5093377;28;20399;-65
2022/01/07 03:15:38;;;;;;;5.38;0.70;;;2.00;99.90;;;;;;5094739;28;20040;-65
2022/01/07 03:18:07;;;;;;;3.30;0.50;;;2.00;99.90;;;;;;5094656;28;20056;-68
2022/01/07 03:20:38;;;;;;;8.75;0.98;;;2.00;99.90;;;;;;5094488;28;20040;-65
2022/01/07 03:23:12;;;;;;;7.35;0.70;;;2.00;99.90;;;;;;5094618;28;20483;-70
2022/01/07 03:25:41;;;;;;;4.25;0.60;;;2.00;99.90;;;;;;5094546;28;20044;-65
2022/01/07 03:28:10;;;;;;;2.30;0.40;;;2.00;99.90;;;;;;5094097;28;20055;-66
2022/01/07 03:30:38;;;;;;;9.73;1.38;;;2.10;99.90;;;;;;5094473;28;20483;-65
2022/01/07 03:33:07;;;;;;;6.93;0.90;;;2.10;99.90;;;;;;5094402;28;20048;-66
2022/01/07 03:35:35;;;;;;;5.03;0.43;;;2.10;99.90;;;;;;5093373;28;20040;-68
2022/01/07 03:38:04;;;;;;;2.28;0.40;;;2.20;99.90;;;;;;5076241;28;20044;-65
2022/01/07 03:40:32;;;;;;;5.82;0.82;;;2.10;99.90;;;;;;5093790;28;20051;-66
2022/01/07 03:43:00;;;;;;;2.05;0.38;;;2.10;99.90;;;;;;5093010;28;20067;-65
2022/01/07 03:45:28;;;;;;;2.20;0.50;;;2.20;99.90;;;;;;5093377;28;20052;-65
2022/01/07 03:47:56;;;;;;;15.05;1.33;;;2.20;99.90;;;;;;5092825;28;20491;-65
2022/01/07 03:50:26;;;;;;;0.32;0.20;;;2.30;99.90;;;;;;5094123;28;20048;-66
2022/01/07 03:52:55;;;;;;;2.22;0.30;;;2.20;99.90;;;;;;5092819;28;20051;-65
2022/01/07 03:55:26;;;;;;;2.13;0.45;;;2.30;99.90;;;;;;5093928;28;20052;-67
2022/01/07 03:57:54;;;;;;;5.20;0.55;;;2.20;99.90;;;;;;5093972;28;20495;-68
2022/01/07 04:00:32;;;;;;;3.88;0.50;;;2.20;99.90;;;;;;5093684;28;20044;-65
2022/01/07 04:03:07;;;;;;;3.97;1.35;;;2.00;99.90;;;;;;5094026;28;20048;-70
2022/01/07 04:05:35;;;;;;;2.88;0.68;;;2.10;99.90;;;;;;5093783;28;20041;-72
2022/01/07 04:08:05;;;;;;;4.50;0.60;;;2.10;99.90;;;;;;5094037;28;20079;-70
2022/01/07 04:10:33;;;;;;;2.83;0.95;;;2.10;99.90;;;;;;5093672;28;20052;-68
2022/01/07 04:13:00;;;;;;;3.38;0.50;;;2.10;99.90;;;;;;5092555;28;20048;-66
2022/01/07 04:15:28;;;;;;;6.05;1.85;;;2.00;99.90;;;;;;5093594;28;20048;-66
2022/01/07 04:17:56;;;;;;;5.75;0.90;;;2.00;99.90;;;;;;5093100;28;20051;-74
2022/01/07 04:20:30;;;;;;;3.50;0.65;;;2.00;99.90;;;;;;5093425;28;20048;-70
2022/01/07 04:22:59;;;;;;;4.65;0.65;;;2.00;99.90;;;;;;5093618;28;20055;-72
2022/01/07 04:25:26;;;;;;;2.83;0.77;;;2.00;99.90;;;;;;5093613;28;20048;-67
2022/01/07 04:27:58;;;;;;;5.60;0.70;;;2.00;99.90;;;;;;5093715;28;20043;-68
2022/01/07 04:30:30;;;;;;;3.95;0.70;;;2.00;99.90;;;;;;5093379;28;20376;-66
2022/01/07 04:33:02;;;;;;;3.78;0.68;;;2.00;99.90;;;;;;5093316;28;20044;-66
2022/01/07 04:35:31;;;;;;;8.35;1.42;;;1.90;99.90;;;;;;5093390;28;20059;-66
2022/01/07 04:37:59;;;;;;;5.70;1.20;;;1.90;99.90;;;;;;5093406;28;20048;-68
2022/01/07 04:40:27;;;;;;;10.00;2.45;;;1.80;99.90;;;;;;5093132;28;20036;-69
2022/01/07 04:42:55;;;;;;;9.18;0.77;;;1.70;99.90;;;;;;5093337;28;20415;-66
2022/01/07 04:45:23;;;;;;;8.32;0.70;;;1.70;99.90;;;;;;5093026;28;20068;-66
2022/01/07 04:47:50;;;;;;;10.18;1.60;;;1.70;99.90;;;;;;5093146;28;20044;-68
2022/01/07 04:50:20;;;;;;;9.52;1.42;;;1.70;99.90;;;;;;5093028;28;20052;-66
2022/01/07 04:52:48;;;;;;;7.20;0.85;;;1.60;99.90;;;;;;5091875;28;20048;-68
2022/01/07 04:55:19;;;;;;;8.88;1.00;;;1.60;99.90;;;;;;5092900;28;20502;-66
2022/01/07 04:57:47;;;;;;;3.63;0.57;;;1.60;99.90;;;;;;5091655;28;20048;-66
2022/01/07 05:00:17;;;;;;;9.90;1.17;;;1.60;99.90;;;;;;5091609;28;20048;-70
2022/01/07 05:02:45;;;;;;;;;;;1.60;99.90;;;;;;5093292;28;20063;-66
2022/01/07 05:05:13;;;;;;;7.57;0.82;;;1.70;99.90;;;;;;5093022;28;19935;-69
2022/01/07 05:07:41;;;;;;;5.25;1.00;;;1.70;99.90;;;;;;5092484;28;20122;-67
2022/01/07 05:10:11;;;;;;;3.75;1.30;;;1.80;99.90;;;;;;5092727;28;20051;-69
2022/01/07 05:12:39;;;;;;;8.20;0.80;;;1.80;99.90;;;;;;5091481;28;20414;-67
2022/01/07 05:15:07;;;;;;;8.23;0.80;;;1.80;99.90;;;;;;5092632;28;20510;-69
2022/01/07 05:17:36;;;;;;;10.25;0.98;;;1.90;99.90;;;;;;5092684;28;20549;-67
2022/01/07 05:20:04;;;;;;;6.07;1.00;;;2.00;99.90;;;;;;5091507;28;20636;-72
2022/01/07 05:22:32;;;;;;;7.97;0.80;;;1.90;99.90;;;;;;5092892;28;20055;-69
2022/01/07 05:25:00;;;;;;;11.70;1.35;;;1.90;99.90;;;;;;5091539;28;20145;-67
2022/01/07 05:27:27;;;;;;;4.13;0.80;;;1.90;99.90;;;;;;5092777;28;20044;-70
2022/01/07 05:29:55;;;;;;;8.98;0.98;;;1.90;99.90;;;;;;5093127;28;20044;-67
2022/01/07 05:32:22;;;;;;;9.57;1.10;;;2.00;99.90;;;;;;5092545;28;20044;-71
2022/01/07 05:34:50;;;;;;;6.70;1.23;;;2.10;99.90;;;;;;5090891;28;20040;-66
2022/01/07 05:37:18;;;;;;;5.53;0.60;;;2.10;99.90;;;;;;5091974;28;20055;-67
2022/01/07 05:39:45;;;;;;;13.65;1.05;;;2.20;99.90;;;;;;5091982;28;20066;-74
2022/01/07 05:42:13;;;;;;;2.67;0.50;;;2.20;99.90;;;;;;5092031;28;20483;-73
2022/01/07 05:44:41;;;;;;;12.32;1.00;;;2.30;99.90;;;;;;5090534;28;20051;-65
2022/01/07 05:47:08;;;;;;;8.50;0.57;;;2.30;99.90;;;;;;5086152;28;22493;-67
2022/01/07 05:49:36;;;;;;;3.33;0.40;;;2.30;99.90;;;;;;5067866;28;20049;-66
2022/01/07 05:52:04;;;;;;;7.00;0.77;;;2.40;99.90;;;;;;5068067;28;20521;-69
2022/01/07 05:54:33;;;;;;;2.00;0.50;;;2.40;99.90;;;;;;5068281;28;20045;-67
2022/01/07 05:57:01;;;;;;;3.75;0.80;;;2.40;99.90;;;;;;5068335;28;20055;-65
2022/01/07 05:59:33;;;;;;;2.47;0.45;;;2.50;99.90;;;;;;5066315;28;20048;-65
2022/01/07 06:02:02;;;;;;;2.92;0.38;;;2.50;99.90;;;;;;5065458;28;20035;-66
2022/01/07 06:04:30;;;;;;;3.38;0.50;;;2.60;99.90;;;;;;5062263;28;20056;-65
2022/01/07 06:06:57;;;;;;;6.07;0.57;;;2.60;99.90;;;;;;5064987;28;20044;-65
2022/01/07 06:09:25;;;;;;;3.42;0.30;;;2.60;99.90;;;;;;5084881;28;20427;-67
2022/01/07 06:11:53;;;;;;;3.13;0.63;;;2.60;99.90;;;;;;5086340;28;20788;-65
2022/01/07 06:14:21;;;;;;;2.80;0.70;;;2.60;99.90;;;;;;5088184;28;20055;-65
2022/01/07 06:16:48;;;;;;;0.70;0.20;;;2.60;99.90;;;;;;5082161;28;20051;-65
2022/01/07 06:19:16;;;;;;;3.85;0.75;;;2.60;99.90;;;;;;5069312;28;20484;-65
2022/01/07 06:21:43;;;;;;;1.42;0.35;;;2.50;99.90;;;;;;5065584;28;20480;-65
2022/01/07 06:24:11;;;;;;;7.75;0.60;;;2.50;99.90;;;;;;5082827;28;20052;-70
2022/01/07 06:26:39;;;;;;;0.30;0.20;;;2.50;99.90;;;;;;5086556;28;20044;-66
2022/01/07 06:29:07;;;;;;;3.03;0.50;;;2.40;99.90;;;;;;5088292;28;20047;-65
2022/01/07 06:31:34;;;;;;;10.35;0.55;;;2.30;99.90;;;;;;5088253;28;20395;-64
2022/01/07 06:34:03;;;;;;;1.80;0.30;;;2.30;99.90;;;;;;5073758;28;20049;-65
2022/01/07 06:36:30;;;;;;;3.17;0.40;;;2.20;99.90;;;;;;5083362;28;20411;-66
2022/01/07 06:38:58;;;;;;;5.03;0.68;;;2.20;99.90;;;;;;5083541;28;20052;-66
2022/01/07 06:41:26;;;;;;;4.35;0.40;;;2.10;99.90;;;;;;5088216;28;20646;-66
2022/01/07 06:43:53;;;;;;;1.48;0.40;;;2.10;99.90;;;;;;5087935;28;20475;-68
2022/01/07 06:46:21;;;;;;;2.97;0.38;;;2.10;99.90;;;;;;5088110;28;20433;-67
2022/01/07 06:48:49;;;;;;;8.23;0.77;;;2.10;99.90;;;;;;5086994;28;20044;-68
2022/01/07 06:51:16;;;;;;;5.88;0.93;;;2.10;99.90;;;;;;5070235;28;20052;-74
2022/01/07 06:53:44;;;;;;;1.63;0.47;;;2.00;99.90;;;;;;5087618;28;20044;-72
2022/01/07 06:56:12;;;;;;;2.05;0.20;;;2.10;99.90;;;;;;5084983;28;20048;-72
2022/01/07 06:58:39;;;;;;;9.25;0.80;;;2.10;99.90;;;;;;5084092;28;20047;-69
2022/01/07 07:01:07;;;;;;;5.72;0.75;;;2.10;99.90;;;;;;5084143;28;20055;-66
2022/01/07 07:03:35;;;;;;;7.97;1.42;;;2.20;99.90;;;;;;5075903;28;20052;-66
2022/01/07 07:06:03;;;;;;;1.15;0.40;;;2.20;99.90;;;;;;5064774;28;20055;-67
2022/01/07 07:08:31;;;;;;;8.63;1.15;;;2.30;99.90;;;;;;5080752;28;20044;-67
2022/01/07 07:10:58;;;;;;;5.10;0.55;;;2.30;99.90;;;;;;5089981;28;20040;-68
2022/01/07 07:13:26;;;;;;;4.45;0.52;;;2.40;99.90;;;;;;5101129;28;20043;-73
2022/01/07 07:15:54;;;;;;;3.47;0.20;;;2.40;99.90;;;;;;5109043;28;20172;-75
2022/01/07 07:18:22;;;;;;;3.20;0.60;;;2.40;99.90;;;;;;5097792;28;20508;-69
2022/01/07 07:20:49;;;;;;;6.53;0.60;;;2.40;99.90;;;;;;5067601;28;20045;-73
2022/01/07 07:23:17;;;;;;;2.97;0.50;;;2.40;99.90;;;;;;5080151;28;20036;-70
2022/01/07 07:25:44;;;;;;;2.47;0.55;;;2.50;99.90;;;;;;5088264;28;20052;-67
2022/01/07 07:28:12;;;;;;;7.13;0.25;;;2.50;99.90;;;;;;5088192;28;20479;-67
2022/01/07 07:30:41;;;;;;;5.03;1.05;;;2.50;99.90;;;;;;5087796;28;20052;-68
2022/01/07 07:38:13;;;;;;;1.10;0.60;;;2.20;99.90;;;;;;5077226;28;20056;-67
2022/01/07 07:40:41;;;;;;;3.15;0.90;;;2.10;99.90;;;;;;5088257;28;20479;-66
2022/01/07 07:43:08;;;;;;;4.78;0.50;;;2.00;99.90;;;;;;5090832;28;20040;-68
2022/01/07 07:45:37;;;;;;;3.53;1.77;;;1.90;99.90;;;;;;5089435;28;20403;-67
2022/01/07 07:48:05;;;;;;;2.60;0.38;;;1.80;99.90;;;;;;5097228;28;20050;-67
2022/01/07 07:50:32;;;;;;;5.90;0.50;;;1.70;99.90;;;;;;5090962;28;20051;-68
2022/01/07 07:53:00;;;;;;;6.72;1.50;;;1.70;99.90;;;;;;5090416;28;20057;-68
2022/01/07 07:55:28;;;;;;;4.90;0.73;;;1.70;99.90;;;;;;5090987;28;20051;-67
2022/01/07 07:57:55;;;;;;;9.00;0.65;;;1.60;99.90;;;;;;5090167;28;20051;-67
2022/01/07 08:00:23;;;;;;;2.13;0.60;;;1.60;99.90;;;;;;5090376;28;20503;-67
2022/01/07 08:02:53;;;;;;;7.80;0.88;;;1.50;99.90;;;;;;5086932;28;20549;-68
2022/01/07 08:05:21;;;;;;;4.13;0.40;;;1.50;99.90;;;;;;5068030;28;20079;-71
2022/01/07 08:07:49;;;;;;;6.03;0.75;;;1.60;99.90;;;;;;5074889;28;20051;-69
2022/01/07 08:10:22;;;;;;;3.70;0.80;;;1.50;99.90;;;;;;5090443;28;20069;-69
2022/01/07 08:13:25;;;;;;;2.25;0.85;;;1.50;99.90;;;;;;5089095;28;20052;-69
2022/01/07 08:16:00;;;;;;;6.90;0.55;;;1.50;99.90;;;;;;5090107;28;20056;-70
2022/01/07 08:18:33;;;;;;;5.97;0.68;;;1.50;99.90;;;;;;5085347;28;20048;-67
2022/01/07 08:21:09;;;;;;;7.95;0.80;;;1.20;99.90;;;;;;5086646;28;20056;-66
2022/01/07 08:23:40;;;;;;;2.33;0.50;;;1.40;99.90;;;;;;5086847;28;20048;-67
2022/01/07 08:26:10;;;;;;;6.55;0.93;;;1.40;99.90;;;;;;5087197;28;20242;-67
2022/01/07 08:28:43;;;;;;;3.58;0.60;;;1.40;99.90;;;;;;5085720;28;20047;-67
2022/01/07 08:36:45;;;;;;;5.82;0.90;;;1.30;99.90;;;;;;5089810;28;20036;-69
2022/01/07 08:39:13;;;;;;;6.13;0.85;;;1.30;99.90;;;;;;5089889;28;20511;-68
2022/01/07 08:41:42;;;;;;;5.68;0.85;;;1.30;99.90;;;;;;5089768;28;20039;-68
2022/01/07 08:44:11;;;;;;;4.82;0.88;;;1.30;99.90;;;;;;5089245;28;20476;-69
2022/01/07 08:46:39;;;;;;;2.50;0.55;;;1.30;99.90;;;;;;5088357;28;20059;-69
2022/01/07 08:49:07;;;;;;;4.30;0.50;;;1.30;99.90;;;;;;5088150;28;20043;-68
2022/01/07 08:51:34;;;;;;;6.53;1.23;;;1.30;99.90;;;;;;5088379;28;20052;-69
2022/01/07 08:54:02;;;;;;;9.63;0.80;;;1.30;99.90;;;;;;5089200;28;20046;-69
2022/01/07 08:56:30;;;;;;;4.65;0.80;;;1.30;99.90;;;;;;5071795;28;20063;-71
2022/01/07 08:58:58;;;;;;;8.15;0.85;;;1.30;99.90;;;;;;5089311;28;20044;-71
2022/01/07 09:01:29;;;;;;;9.35;1.00;;;1.30;99.90;;;;;;5088009;28;20052;-71
2022/01/07 09:03:57;;;;;;;2.97;0.57;;;1.30;99.90;;;;;;5085542;28;20040;-68
2022/01/07 09:06:25;;;;;;;2.20;0.60;;;1.30;99.90;;;;;;5069242;28;20052;-68
2022/01/07 09:08:53;;;;;;;9.48;1.83;;;1.30;99.90;;;;;;5083604;28;20059;-68
2022/01/07 09:11:20;;;;;;;6.72;1.38;;;1.30;99.90;;;;;;5089100;28;20056;-67
2022/01/07 09:13:50;;;;;;;3.53;0.80;;;1.40;99.90;;;;;;5087595;28;20040;-72
2022/01/07 09:16:20;;;;;;;3.83;0.68;;;1.40;99.90;;;;;;5088682;28;20060;-68
2022/01/07 09:18:49;;;;;;;8.32;0.50;;;1.50;99.90;;;;;;5086498;28;20199;-67
2022/01/07 09:21:17;;;;;;;10.32;0.60;;;1.50;99.90;;;;;;5068531;28;20057;-67
2022/01/07 09:23:45;;;;;;;3.10;0.50;;;1.60;99.90;;;;;;5084158;28;20040;-67
2022/01/07 09:26:13;;;;;;;3.28;0.57;;;1.60;99.90;;;;;;5087385;28;20043;-70
2022/01/07 09:28:41;;;;;;;6.75;0.50;;;1.70;99.90;;;;;;5088848;28;20052;-66
2022/01/07 09:31:09;;;;;;;5.20;0.70;;;1.80;99.90;;;;;;5087763;28;20055;-67
2022/01/07 09:33:38;;;;;;;3.17;0.70;;;1.80;99.90;;;;;;5088771;28;20044;-66
2022/01/07 09:36:26;;;;;;;5.00;0.52;;;1.90;99.90;;;;;;5067487;28;20048;-68
2022/01/07 09:38:54;;;;;;;4.78;0.55;;;2.00;99.90;;;;;;5083112;28;20040;-69
2022/01/07 09:41:21;;;;;;;3.72;0.55;;;2.00;99.90;;;;;;5088448;28;20399;-67
2022/01/07 09:43:49;;;;;;;5.55;1.13;;;2.10;99.90;;;;;;5088186;28;20048;-67
2022/01/07 09:46:18;;;;;;;2.55;0.60;;;2.20;99.90;;;;;;5088753;28;20047;-68
2022/01/07 09:48:46;;;;;;;4.40;0.70;;;2.20;99.90;;;;;;5088858;28;20047;-67
2022/01/07 09:51:15;;;;;;;1.73;0.38;;;2.30;99.90;;;;;;5083830;28;20051;-73
2022/01/07 09:53:42;;;;;;;3.05;0.45;;;2.20;99.90;;;;;;5082872;28;20602;-75
2022/01/07 09:56:11;;;;;;;2.75;0.50;;;2.30;99.90;;;;;;5088524;28;20476;-76
2022/01/07 09:58:39;;;;;;;4.00;1.23;;;2.20;99.90;;;;;;5087503;28;20044;-67
2022/01/07 10:01:19;;;;;;;4.60;0.90;;;2.30;99.90;;;;;;5087118;28;20056;-67
2022/01/07 10:03:47;;;;;;;6.30;0.90;;;2.20;99.90;;;;;;5086829;28;20631;-66
2022/01/07 10:06:23;;;;;;;6.40;0.83;;;2.30;99.90;;;;;;5068872;28;20052;-65
2022/01/07 10:09:07;;;;;;;5.25;1.02;;;2.30;99.90;;;;;;5081049;28;20051;-66
2022/01/07 10:11:35;;;;;;;4.13;1.25;;;2.30;99.90;;;;;;5088360;28;20055;-66
2022/01/07 10:14:17;;;;;;;6.13;1.08;;;2.30;99.90;;;;;;5087990;28;20130;-67
2022/01/07 10:16:56;;;;;;;11.75;1.65;;;2.30;99.90;;;;;;5088306;28;20402;-68
2022/01/07 10:19:34;;;;;;;2.80;0.75;;;2.40;99.90;;;;;;5085292;28;20040;-65
2022/01/07 10:22:11;;;;;;;3.47;0.93;;;2.50;99.90;;;;;;5068597;28;20049;-65
2022/01/07 10:25:00;;;;;;;2.97;0.70;;;2.50;99.90;;;;;;5088246;28;20041;-66
2022/01/07 10:27:34;;;;;;;7.75;1.85;;;2.60;99.90;;;;;;5088181;28;20048;-65
2022/01/07 10:30:14;;;;;;;11.25;1.05;;;2.60;99.90;;;;;;5088220;28;20040;-67
2022/01/07 10:32:42;;;;;;;;;;;2.80;99.90;;;;;;5088250;28;20074;-72
2022/01/07 10:35:14;;;;;;;11.00;1.70;;;2.90;99.90;;;;;;5080025;28;19935;-66
2022/01/07 10:37:49;;;;;;;6.10;1.80;;;3.00;99.90;;;;;;5072373;28;20082;-75
2022/01/07 10:40:19;;;;;;;6.85;1.38;;;3.10;99.90;;;;;;5087149;28;20126;-70
2022/01/07 10:42:47;;;;;;;10.82;2.78;;;3.20;99.90;;;;;;5087841;28;20048;-65
2022/01/07 10:45:15;;;;;;;4.90;0.60;;;3.20;99.90;;;;;;5072151;28;20044;-70
2022/01/07 10:47:49;;;;;;;4.63;0.63;;;3.30;99.90;;;;;;5070450;28;20044;-67
2022/01/07 10:50:27;;;;;;;4.28;1.00;;;3.30;99.90;;;;;;5071471;28;20048;-68
2022/01/07 10:53:19;;;;;;;10.18;2.35;;;3.30;99.90;;;;;;5077909;28;20051;-67
2022/01/07 10:55:58;;;;;;;4.97;0.63;;;3.30;99.90;;;;;;5091819;28;20516;-67
2022/01/07 10:58:26;;;;;;;4.65;0.50;;;3.30;99.90;;;;;;5091627;28;20047;-66
2022/01/07 11:00:54;;;;;;;3.83;0.38;;;3.30;99.90;;;;;;5091345;28;20040;-65
2022/01/07 11:03:21;;;;;;;4.97;0.40;;;3.40;99.90;;;;;;5069689;28;20059;-66
2022/01/07 11:05:49;;;;;;;3.20;0.38;;;3.40;99.90;;;;;;5071118;28;20043;-66
2022/01/07 11:08:17;;;;;;;1.73;0.40;;;3.40;99.90;;;;;;5078992;28;20057;-67
2022/01/07 11:10:45;;;;;;;7.30;1.25;;;3.40;99.90;;;;;;5090450;28;20036;-67
2022/01/07 11:13:13;;;;;;;4.68;0.95;;;3.50;99.90;;;;;;5091041;28;20052;-69
2022/01/07 11:15:41;;;;;;;3.42;0.52;;;3.50;99.90;;;;;;5091140;28;20403;-77
2022/01/07 11:18:09;;;;;;;2.95;0.40;;;3.60;99.90;;;;;;5090893;28;20052;-73
2022/01/07 11:20:38;;;;;;;3.63;0.50;;;3.70;99.90;;;;;;5085233;28;20037;-68
2022/01/07 11:23:05;;;;;;;5.95;0.50;;;3.80;99.90;;;;;;5080381;28;20044;-66
2022/01/07 11:25:33;;;;;;;10.30;0.65;;;3.90;99.90;;;;;;5093242;28;20036;-65
2022/01/07 11:28:01;;;;;;;5.85;0.98;;;4.00;99.90;;;;;;5084461;28;20055;-64
2022/01/07 11:30:33;;;;;;;4.72;0.93;;;3.90;99.90;;;;;;5091098;28;20044;-65
2022/01/07 11:33:14;;;;;;;3.80;1.38;;;3.90;99.90;;;;;;5090566;28;20387;-65
2022/01/07 11:35:44;;;;;;;5.35;0.85;;;3.90;99.90;;;;;;5085681;28;20048;-67
2022/01/07 11:38:30;;;;;;;6.38;0.90;;;3.90;99.90;;;;;;5078923;28;20479;-66
2022/01/07 11:40:59;;;;;;;22.40;1.02;;;3.90;99.90;;;;;;5090789;28;20051;-66
2022/01/07 11:43:32;;;;;;;5.85;0.77;;;3.90;99.90;;;;;;5090681;28;20048;-66
2022/01/07 11:46:29;;;;;;;4.22;0.95;;;4.00;99.90;;;;;;5090887;28;20044;-69
2022/01/07 11:48:59;;;;;;;2.28;0.57;;;3.90;99.90;;;;;;5089464;28;20056;-67
2022/01/07 11:51:38;;;;;;;5.18;0.73;;;3.90;99.90;;;;;;5076027;28;20055;-75
2022/01/07 11:54:09;;;;;;;5.40;0.75;;;3.90;99.90;;;;;;5087779;28;20044;-67
2022/01/07 11:56:41;;;;;;;2.80;0.60;;;3.90;99.90;;;;;;5089696;28;20055;-73
2022/01/07 11:59:17;;;;;;;3.55;0.70;;;3.90;99.90;;;;;;5089253;28;20421;-65
2022/01/07 12:01:56;;;;;;;2.97;1.13;;;3.90;99.90;;;;;;5090378;28;20055;-67
2022/01/07 12:04:28;;;;;;;2.83;0.57;;;4.00;99.90;;;;;;5109810;28;20475;-67
2022/01/07 12:07:01;;;;;;;3.15;0.70;;;4.00;99.90;;;;;;5075185;28;20053;-67
2022/01/07 12:09:34;;;;;;;4.68;0.98;;;4.00;99.90;;;;;;5088939;28;20850;-73
2022/01/07 12:12:11;;;;;;;7.28;0.80;;;4.10;99.90;;;;;;5087032;28;20048;-69
2022/01/07 12:14:53;;;;;;;5.50;0.80;;;4.20;99.90;;;;;;5078411;28;20044;-76
2022/01/07 12:17:24;;;;;;;8.40;0.65;;;4.20;99.90;;;;;;5071563;28;20053;-67
2022/01/07 12:19:52;;;;;;;10.40;0.98;;;4.20;99.90;;;;;;5079095;28;20044;-74
2022/01/07 12:22:20;;;;;;;1.10;0.35;;;4.20;99.90;;;;;;5077306;28;20056;-67
2022/01/07 12:24:56;;;;;;;11.73;1.45;;;4.10;99.90;;;;;;5077787;28;20052;-73
2022/01/07 12:27:24;;;;;;;3.47;0.52;;;4.10;99.90;;;;;;5070676;28;20052;-66
2022/01/07 12:29:57;;;;;;;7.30;1.00;;;4.00;99.90;;;;;;5089807;28;20048;-74
2022/01/07 12:32:34;;;;;;;7.13;0.88;;;4.10;99.90;;;;;;5088407;28;20059;-73
2022/01/07 12:35:05;;;;;;;5.28;1.02;;;4.10;99.90;;;;;;5089462;28;20055;-69
2022/01/07 12:37:33;;;;;;;8.57;0.85;;;4.10;99.90;;;;;;5089494;28;20059;-71
2022/01/07 12:40:05;;;;;;;7.07;0.90;;;4.10;99.90;;;;;;5089809;28;20111;-66
2022/01/07 12:42:38;;;;;;;9.18;1.38;;;4.10;99.90;;;;;;5089289;28;20052;-66
2022/01/07 12:45:06;;;;;;;7.20;1.35;;;4.10;99.90;;;;;;5089691;28;20491;-68
2022/01/07 12:47:34;;;;;;;3.92;0.90;;;4.10;99.90;;;;;;5089458;28;20059;-73
2022/01/07 12:50:05;;;;;;;10.27;1.05;;;4.10;99.90;;;;;;5088526;28;20051;-67
2022/01/07 12:52:37;;;;;;;6.53;1.08;;;4.10;99.90;;;;;;5072933;28;20063;-68
2022/01/07 12:55:20;;;;;;;5.70;1.10;;;4.10;99.90;;;;;;5089390;28;20544;-68
2022/01/07 12:57:50;;;;;;;6.47;0.80;;;4.10;99.90;;;;;;5088065;28;20052;-66
2022/01/07 13:00:30;;;;;;;6.25;0.80;;;4.10;99.90;;;;;;5087815;28;20526;-67
2022/01/07 13:03:11;;;;;;;3.72;0.68;;;4.10;99.90;;;;;;5089067;28;20510;-69
2022/01/07 13:05:42;;;;;;;6.78;0.70;;;4.10;99.90;;;;;;5087927;28;20040;-70
2022/01/07 13:08:15;;;;;;;9.65;0.90;;;4.20;99.90;;;;;;5088333;28;20048;-68
2022/01/07 13:10:44;;;;;;;4.28;0.88;;;4.20;99.90;;;;;;5089409;28;20051;-66
2022/01/07 13:13:18;;;;;;;2.80;0.50;;;4.20;99.90;;;;;;5088631;28;20040;-65
2022/01/07 13:15:54;;;;;;;12.13;1.67;;;4.20;99.90;;;;;;5089100;28;20767;-69
2022/01/07 13:18:26;;;;;;;7.30;1.23;;;4.20;99.90;;;;;;5089072;28;20036;-67
2022/01/07 13:21:15;;;;;;;5.53;0.90;;;4.20;99.90;;;;;;5084434;28;20044;-66